createdAt,value
2023-01-06T00:00:39.251Z,76.88
2023-01-06T00:03:18.983Z,76.60
2023-01-06T00:05:46.094Z,76.67
2023-01-06T00:08:13.067Z,76.52
2023-01-06T00:10:40.545Z,76.76
2023-01-06T00:13:07.660Z,76.61
2023-01-06T00:15:34.682Z,76.76
2023-01-06T00:18:01.946Z,76.69
2023-01-06T00:20:29.182Z,76.62
2023-01-06T00:22:56.120Z,76.61
2023-01-06T00:25:23.504Z,76.89
2023-01-06T00:27:50.443Z,76.78
2023-01-06T00:30:17.491Z,76.71
2023-01-06T00:32:45.239Z,76.73
2023-01-06T00:35:12.950Z,76.83
2023-01-06T00:37:39.983Z,76.67
2023-01-06T00:40:08.719Z,76.66
2023-01-06T00:42:37.988Z,76.89
2023-01-06T00:45:05.144Z,76.88
2023-01-06T00:47:32.522Z,76.67
2023-01-06T00:49:59.471Z,76.56
2023-01-06T00:52:26.616Z,76.42
2023-01-06T00:54:53.622Z,76.19
2023-01-06T00:57:20.577Z,75.82
2023-01-06T00:59:47.505Z,75.58
2023-01-06T01:02:14.811Z,75.73
2023-01-06T01:04:41.947Z,75.66
2023-01-06T01:07:10.516Z,75.74
2023-01-06T01:09:39.335Z,75.76
2023-01-06T01:12:13.194Z,75.86
2023-01-06T01:14:47.043Z,76.10
2023-01-06T01:17:16.710Z,76.06
2023-01-06T01:19:44.029Z,75.90
2023-01-06T01:22:11.961Z,75.56
2023-01-06T01:24:39.126Z,75.46
2023-01-06T01:27:06.394Z,75.42
2023-01-06T01:29:34.053Z,75.60
2023-01-06T01:32:01.250Z,75.87
2023-01-06T01:34:28.508Z,76.09
2023-01-06T01:36:57.014Z,75.89
2023-01-06T01:39:26.090Z,75.74
2023-01-06T01:41:53.615Z,76.01
2023-01-06T01:45:02.565Z,76.03
2023-01-06T01:47:46.296Z,76.04
2023-01-06T01:50:21.276Z,75.84
2023-01-06T01:52:52.082Z,75.69
2023-01-06T01:55:19.838Z,75.73
2023-01-06T01:57:53.175Z,75.89
2023-01-06T02:00:21.397Z,75.95
2023-01-06T02:02:48.578Z,76.03
2023-01-06T02:05:19.928Z,76.03
2023-01-06T02:07:47.778Z,75.94
2023-01-06T02:10:18.199Z,75.83
2023-01-06T02:12:47.289Z,75.98
2023-01-06T02:15:25.093Z,75.84
2023-01-06T02:18:18.215Z,75.76
2023-01-06T02:21:03.327Z,75.84
2023-01-06T02:24:03.420Z,75.86
2023-01-06T02:27:09.741Z,75.90
2023-01-06T02:30:27.911Z,75.93
2023-01-06T02:33:00.813Z,76.02
2023-01-06T02:35:55.485Z,76.05
2023-01-06T02:38:36.166Z,76.02
2023-01-06T02:41:23.376Z,76.05
2023-01-06T02:43:54.076Z,76.12
2023-01-06T02:46:32.116Z,75.99
2023-01-06T02:49:11.543Z,75.93
2023-01-06T02:51:46.356Z,76.05
2023-01-06T02:54:21.844Z,76.03
2023-01-06T02:56:55.777Z,76.20
2023-01-06T02:59:28.094Z,76.17
2023-01-06T03:01:58.033Z,76.02
2023-01-06T03:04:30.413Z,75.93
2023-01-06T03:07:02.533Z,75.59
2023-01-06T03:09:34.383Z,75.46
2023-01-06T03:12:07.610Z,75.47
2023-01-06T03:14:39.143Z,75.41
2023-01-06T03:17:06.757Z,75.43
2023-01-06T03:19:35.208Z,75.62
2023-01-06T03:22:04.703Z,75.54
2023-01-06T03:24:31.764Z,75.53
2023-01-06T03:27:00.429Z,75.55
2023-01-06T03:29:27.905Z,75.76
2023-01-06T03:32:02.980Z,75.64
2023-01-06T03:34:44.861Z,75.66
2023-01-06T03:37:23.048Z,75.58
2023-01-06T03:39:59.326Z,75.33
2023-01-06T03:42:52.971Z,75.25
2023-01-06T03:45:36.205Z,75.28
2023-01-06T03:48:10.948Z,75.15
2023-01-06T03:50:41.624Z,75.01
2023-01-06T03:53:19.673Z,75.14
2023-01-06T03:55:52.130Z,75.06
2023-01-06T03:58:21.352Z,75.09
2023-01-06T04:00:49.708Z,75.14
2023-01-06T04:03:17.886Z,75.07
2023-01-06T04:05:45.707Z,74.83
2023-01-06T04:08:13.303Z,74.91
2023-01-06T04:10:40.844Z,74.93
2023-01-06T04:13:08.074Z,74.51
2023-01-06T04:15:35.149Z,74.42
2023-01-06T04:18:05.608Z,74.37
2023-01-06T04:20:34.934Z,74.24
2023-01-06T04:23:15.035Z,74.28
2023-01-06T04:25:44.914Z,74.32
2023-01-06T04:28:18.594Z,73.98
2023-01-06T04:30:45.803Z,73.99
2023-01-06T04:33:12.755Z,73.57
2023-01-06T04:35:40.316Z,73.91
2023-01-06T04:38:07.709Z,74.08
2023-01-06T04:40:34.586Z,74.24
2023-01-06T04:43:07.834Z,74.20
2023-01-06T04:45:35.668Z,74.16
2023-01-06T04:48:02.946Z,73.98
2023-01-06T04:50:29.923Z,73.97
2023-01-06T04:52:58.412Z,74.08
2023-01-06T04:55:25.431Z,74.05
2023-01-06T04:57:52.669Z,74.21
2023-01-06T05:00:20.737Z,74.30
2023-01-06T05:02:48.157Z,74.32
2023-01-06T05:05:16.040Z,74.38
2023-01-06T05:07:43.333Z,74.13
2023-01-06T05:10:12.018Z,74.22
2023-01-06T05:12:39.153Z,74.22
2023-01-06T05:15:07.250Z,73.96
2023-01-06T05:17:34.190Z,73.86
2023-01-06T05:20:01.314Z,73.70
2023-01-06T05:22:28.685Z,73.76
2023-01-06T05:24:55.642Z,73.83
2023-01-06T05:27:23.070Z,73.93
2023-01-06T05:29:50.636Z,73.98
2023-01-06T05:32:17.626Z,73.97
2023-01-06T05:34:44.580Z,74.19
2023-01-06T05:37:12.586Z,74.14
2023-01-06T05:39:39.524Z,73.87
2023-01-06T05:42:06.472Z,73.88
2023-01-06T05:44:33.653Z,73.86
2023-01-06T05:47:00.581Z,73.74
2023-01-06T05:49:27.534Z,73.63
2023-01-06T05:51:55.121Z,73.52
2023-01-06T05:54:22.283Z,73.34
2023-01-06T05:56:49.322Z,73.44
2023-01-06T05:59:16.570Z,73.47
2023-01-06T06:01:43.656Z,73.14
2023-01-06T06:04:12.665Z,73.33
2023-01-06T06:06:39.950Z,73.49
2023-01-06T06:09:07.240Z,73.68
2023-01-06T06:11:34.221Z,73.78
2023-01-06T06:14:01.624Z,73.64
2023-01-06T06:16:29.649Z,73.70
2023-01-06T06:18:58.773Z,73.66
2023-01-06T06:21:27.641Z,73.75
2023-01-06T06:23:55.407Z,73.76
2023-01-06T06:26:22.677Z,73.79
2023-01-06T06:28:50.036Z,73.61
2023-01-06T06:31:20.565Z,73.62
2023-01-06T06:33:50.675Z,73.81
2023-01-06T06:36:17.789Z,73.78
2023-01-06T06:38:45.528Z,73.88
2023-01-06T06:41:12.542Z,73.86
2023-01-06T06:43:39.720Z,73.82
2023-01-06T06:46:07.336Z,73.96
2023-01-06T06:48:34.344Z,74.13
2023-01-06T06:51:02.301Z,74.11
2023-01-06T06:53:29.648Z,74.30
2023-01-06T06:55:57.084Z,74.30
2023-01-06T06:58:24.441Z,74.27
2023-01-06T07:00:51.474Z,74.34
2023-01-06T07:03:18.560Z,74.44
2023-01-06T07:05:46.660Z,74.44
2023-01-06T07:08:14.787Z,74.55
2023-01-06T07:10:41.941Z,74.45
2023-01-06T07:13:09.351Z,74.25
2023-01-06T07:15:36.583Z,74.28
2023-01-06T07:18:05.136Z,74.31
2023-01-06T07:20:32.921Z,74.19
2023-01-06T07:22:59.885Z,73.91
2023-01-06T07:25:27.065Z,73.60
2023-01-06T07:27:58.299Z,73.57
2023-01-06T07:30:26.196Z,73.40
2023-01-06T07:32:53.462Z,73.33
2023-01-06T07:35:21.093Z,73.33
2023-01-06T07:37:48.003Z,73.49
2023-01-06T07:40:15.811Z,73.47
2023-01-06T07:42:43.044Z,73.46
2023-01-06T07:45:11.981Z,73.66
2023-01-06T07:47:39.187Z,73.70
2023-01-06T07:50:07.029Z,73.67
2023-01-06T07:52:34.098Z,73.62
2023-01-06T07:55:02.879Z,73.46
2023-01-06T07:57:30.652Z,73.72
2023-01-06T07:59:57.841Z,73.72
2023-01-06T08:02:25.701Z,73.57
2023-01-06T08:04:53.016Z,73.39
2023-01-06T08:07:19.987Z,73.06
2023-01-06T08:09:47.029Z,72.98
2023-01-06T08:12:14.014Z,72.72
2023-01-06T08:14:41.047Z,72.75
2023-01-06T08:17:08.421Z,72.64
2023-01-06T08:19:35.419Z,72.61
2023-01-06T08:22:02.452Z,72.78
2023-01-06T08:24:31.856Z,72.92
2023-01-06T08:27:00.016Z,72.79
2023-01-06T08:29:27.056Z,72.58
2023-01-06T08:32:02.225Z,72.48
2023-01-06T08:34:36.595Z,72.54
2023-01-06T08:37:04.669Z,72.55
2023-01-06T08:39:31.678Z,72.42
2023-01-06T08:41:58.695Z,72.19
2023-01-06T08:44:26.026Z,72.18
2023-01-06T08:46:52.964Z,72.06
2023-01-06T08:49:20.623Z,71.66
2023-01-06T08:51:47.687Z,71.70
2023-01-06T08:54:15.471Z,71.86
2023-01-06T08:56:43.640Z,71.93
2023-01-06T08:59:13.850Z,71.88
2023-01-06T09:01:40.892Z,71.77
2023-01-06T09:04:10.236Z,71.55
2023-01-06T09:06:38.045Z,71.34
2023-01-06T09:09:06.625Z,70.96
2023-01-06T09:11:34.293Z,71.03
2023-01-06T09:14:01.300Z,70.70
2023-01-06T09:16:28.343Z,70.13
2023-01-06T09:18:55.352Z,70.16
2023-01-06T09:21:24.601Z,70.17
2023-01-06T09:23:51.900Z,70.31
2023-01-06T09:26:21.732Z,70.36
2023-01-06T09:28:49.177Z,70.30
2023-01-06T09:31:18.166Z,70.42
2023-01-06T09:33:45.314Z,70.41
2023-01-06T09:36:12.711Z,70.52
2023-01-06T09:38:39.705Z,70.67
2023-01-06T09:41:22.511Z,70.29
2023-01-06T09:43:55.174Z,70.26
2023-01-06T09:46:27.710Z,70.29
2023-01-06T09:49:00.929Z,70.55
2023-01-06T09:51:31.392Z,70.49
2023-01-06T09:54:02.761Z,70.31
2023-01-06T09:56:30.720Z,69.95
2023-01-06T09:59:06.067Z,69.71
2023-01-06T10:01:39.077Z,69.33
2023-01-06T10:04:06.427Z,69.23
2023-01-06T10:06:38.268Z,69.14
2023-01-06T10:09:14.600Z,69.32
2023-01-06T10:11:58.016Z,69.20
2023-01-06T10:14:38.958Z,69.07
2023-01-06T10:17:22.181Z,69.27
2023-01-06T10:20:05.790Z,69.26
2023-01-06T10:22:41.199Z,69.41
2023-01-06T10:25:19.557Z,69.64
2023-01-06T10:27:52.764Z,69.85
2023-01-06T10:30:24.809Z,69.61
2023-01-06T10:32:53.589Z,69.45
2023-01-06T10:35:25.696Z,69.40
2023-01-06T10:37:54.625Z,69.57
2023-01-06T10:40:25.589Z,69.78
2023-01-06T10:43:00.315Z,69.74
2023-01-06T10:45:32.464Z,69.48
2023-01-06T10:48:01.395Z,69.67
2023-01-06T10:50:28.730Z,69.75
2023-01-06T10:52:56.103Z,69.59
2023-01-06T10:55:35.181Z,69.68
2023-01-06T10:58:08.102Z,69.71
2023-01-06T11:00:35.601Z,69.62
2023-01-06T11:03:32.415Z,69.53
2023-01-06T11:06:07.251Z,69.70
2023-01-06T11:08:35.705Z,69.70
2023-01-06T11:11:02.895Z,69.57
2023-01-06T11:13:34.591Z,69.33
2023-01-06T11:16:04.257Z,69.34
2023-01-06T11:18:33.820Z,69.58
2023-01-06T11:21:07.633Z,69.93
2023-01-06T11:23:35.734Z,70.04
2023-01-06T11:26:14.232Z,70.12
2023-01-06T11:28:41.878Z,70.18
2023-01-06T11:31:12.020Z,70.32
2023-01-06T11:33:48.671Z,70.36
2023-01-06T11:36:17.932Z,70.01
2023-01-06T11:38:48.791Z,70.05
2023-01-06T11:41:25.175Z,69.70
2023-01-06T11:43:53.061Z,69.69
2023-01-06T11:46:25.705Z,69.64
2023-01-06T11:49:00.054Z,69.66
2023-01-06T11:51:47.776Z,69.74
2023-01-06T11:54:26.681Z,69.77
2023-01-06T11:57:02.957Z,69.91
2023-01-06T11:59:32.712Z,69.89
2023-01-06T12:02:01.381Z,69.77
2023-01-06T12:04:35.174Z,70.06
2023-01-06T12:07:10.132Z,70.35
2023-01-06T12:09:44.588Z,70.47
2023-01-06T12:12:18.611Z,70.34
2023-01-06T12:14:45.749Z,70.49
2023-01-06T12:17:19.653Z,70.59
2023-01-06T12:19:50.036Z,70.61
2023-01-06T12:22:25.999Z,70.65
2023-01-06T12:24:56.595Z,70.56
2023-01-06T12:27:31.576Z,70.62
2023-01-06T12:30:05.123Z,70.83
2023-01-06T12:32:37.500Z,70.89
2023-01-06T12:35:07.147Z,70.81
2023-01-06T12:37:39.595Z,71.13
2023-01-06T12:40:17.105Z,70.95
2023-01-06T12:42:51.660Z,71.06
2023-01-06T12:45:25.640Z,70.98
2023-01-06T12:47:55.415Z,70.95
2023-01-06T12:50:34.496Z,70.93
2023-01-06T12:53:12.951Z,71.05
2023-01-06T12:55:56.120Z,71.34
2023-01-06T12:58:28.892Z,71.50
2023-01-06T13:01:01.861Z,71.60
2023-01-06T13:03:55.555Z,71.72
2023-01-06T13:06:33.769Z,71.79
2023-01-06T13:09:14.798Z,71.82
2023-01-06T13:12:02.786Z,71.91
2023-01-06T13:14:39.680Z,71.92
2023-01-06T13:17:13.677Z,72.15
2023-01-06T13:19:48.205Z,72.21
2023-01-06T13:22:19.225Z,72.37
2023-01-06T13:25:01.457Z,72.41
2023-01-06T13:27:40.866Z,72.56
2023-01-06T13:30:41.684Z,72.65
2023-01-06T13:33:38.258Z,72.63
2023-01-06T13:36:24.358Z,72.77
2023-01-06T13:39:00.408Z,72.82
2023-01-06T13:41:31.527Z,73.04
2023-01-06T13:44:01.679Z,73.16
2023-01-06T13:46:31.855Z,73.20
2023-01-06T13:49:03.354Z,73.20
2023-01-06T13:51:34.174Z,73.35
2023-01-06T13:54:03.035Z,73.36
2023-01-06T13:56:33.234Z,73.42
2023-01-06T13:59:24.017Z,73.53
2023-01-06T14:01:52.696Z,73.62
2023-01-06T14:04:49.943Z,73.75
2023-01-06T14:07:31.349Z,73.87
2023-01-06T14:09:58.513Z,73.81
2023-01-06T14:12:26.659Z,73.89
2023-01-06T14:15:07.923Z,73.83
2023-01-06T14:17:42.064Z,73.89
2023-01-06T14:20:27.733Z,74.05
2023-01-06T14:23:04.920Z,73.98
2023-01-06T14:25:34.480Z,74.15
2023-01-06T14:28:31.173Z,74.03
2023-01-06T14:31:28.931Z,73.95
2023-01-06T14:33:56.428Z,73.96
2023-01-06T14:36:24.688Z,73.90
2023-01-06T14:38:55.112Z,73.63
2023-01-06T14:41:27.647Z,73.77
2023-01-06T14:43:58.913Z,73.73
2023-01-06T14:46:30.473Z,73.80
2023-01-06T14:49:01.724Z,73.86
2023-01-06T14:51:30.476Z,73.93
2023-01-06T14:54:04.480Z,73.89
2023-01-06T14:56:35.943Z,73.93
2023-01-06T14:59:21.645Z,73.86
2023-01-06T15:01:58.750Z,74.05
2023-01-06T15:04:30.266Z,74.06
2023-01-06T15:07:15.581Z,74.03
2023-01-06T15:09:42.929Z,74.06
2023-01-06T15:12:27.739Z,74.16
2023-01-06T15:14:55.381Z,74.25
2023-01-06T15:17:23.435Z,74.21
2023-01-06T15:19:53.225Z,74.33
2023-01-06T15:22:24.950Z,74.48
2023-01-06T15:24:52.465Z,74.51
2023-01-06T15:27:20.819Z,74.57
2023-01-06T15:29:55.603Z,74.62
2023-01-06T15:32:25.579Z,74.68
2023-01-06T15:34:54.256Z,74.71
2023-01-06T15:37:25.718Z,74.75
2023-01-06T15:39:53.780Z,74.92
2023-01-06T15:42:25.866Z,75.03
2023-01-06T15:45:02.027Z,75.15
2023-01-06T15:47:35.509Z,75.15
2023-01-06T15:50:05.001Z,75.15
2023-01-06T15:52:35.569Z,75.26
2023-01-06T15:55:06.177Z,75.25
2023-01-06T15:57:37.350Z,75.39
2023-01-06T16:00:07.531Z,75.42
2023-01-06T16:02:35.667Z,75.48
2023-01-06T16:05:03.246Z,75.58
2023-01-06T16:07:40.718Z,75.77
2023-01-06T16:10:40.775Z,75.70
2023-01-06T16:13:19.827Z,75.99
2023-01-06T16:15:52.616Z,76.01
2023-01-06T16:18:27.290Z,76.20
2023-01-06T16:20:54.453Z,76.37
2023-01-06T16:23:28.625Z,76.49
2023-01-06T16:26:07.142Z,76.43
2023-01-06T16:28:34.876Z,76.64
2023-01-06T16:31:12.199Z,76.59
2023-01-06T16:33:42.488Z,76.90
2023-01-06T16:36:14.874Z,77.10
2023-01-06T16:38:42.311Z,77.30
2023-01-06T16:41:14.096Z,77.59
2023-01-06T16:43:41.194Z,78.00
2023-01-06T16:46:15.749Z,78.14
2023-01-06T16:48:43.021Z,78.14
2023-01-06T16:51:15.895Z,78.66
2023-01-06T16:53:44.917Z,79.09
2023-01-06T16:56:19.500Z,79.28
2023-01-06T16:58:47.107Z,79.45
2023-01-06T17:01:18.744Z,79.52
2023-01-06T17:03:46.434Z,79.83
2023-01-06T17:06:18.223Z,80.07
2023-01-06T17:08:45.361Z,80.44
2023-01-06T17:11:17.678Z,80.64
2023-01-06T17:13:51.241Z,81.28
2023-01-06T17:16:21.586Z,81.44
2023-01-06T17:18:54.821Z,81.75
2023-01-06T17:21:24.743Z,82.06
2023-01-06T17:23:54.419Z,81.79
2023-01-06T17:26:24.765Z,81.82
2023-01-06T17:28:53.751Z,82.21
2023-01-06T17:31:28.299Z,82.52
2023-01-06T17:33:56.809Z,82.89
2023-01-06T17:36:31.161Z,83.23
2023-01-06T17:38:58.513Z,83.35
2023-01-06T17:41:25.709Z,83.30
2023-01-06T17:43:53.025Z,83.58
2023-01-06T17:46:29.836Z,84.15
2023-01-06T17:49:07.488Z,84.11
2023-01-06T17:51:39.753Z,84.28
2023-01-06T17:54:36.695Z,84.51
2023-01-06T17:57:12.968Z,84.69
2023-01-06T17:59:42.264Z,84.60
2023-01-06T18:02:31.258Z,84.88
2023-01-06T18:04:59.482Z,85.10
2023-01-06T18:07:27.172Z,85.08
2023-01-06T18:09:55.028Z,85.06
2023-01-06T18:12:22.372Z,85.33
2023-01-06T18:14:49.410Z,85.64
2023-01-06T18:17:24.775Z,85.65
2023-01-06T18:19:51.949Z,86.27
2023-01-06T18:22:21.479Z,86.38
2023-01-06T18:24:51.540Z,86.37
2023-01-06T18:27:23.728Z,86.66
2023-01-06T18:29:51.479Z,86.92
2023-01-06T18:32:32.051Z,86.88
2023-01-06T18:35:00.603Z,86.71
2023-01-06T18:37:30.004Z,87.19
2023-01-06T18:40:02.192Z,87.03
2023-01-06T18:42:32.368Z,87.43
2023-01-06T18:45:23.135Z,87.48
2023-01-06T18:47:53.904Z,87.57
2023-01-06T18:50:27.964Z,87.89
2023-01-06T18:52:56.076Z,88.01
2023-01-06T18:55:27.513Z,88.51
2023-01-06T18:57:58.854Z,88.47
2023-01-06T19:00:37.380Z,88.93
2023-01-06T19:03:23.867Z,89.03
2023-01-06T19:05:53.527Z,88.96
2023-01-06T19:08:24.128Z,89.38
2023-01-06T19:10:52.729Z,89.72
2023-01-06T19:13:23.987Z,90.12
2023-01-06T19:15:51.409Z,89.99
2023-01-06T19:18:19.887Z,89.94
2023-01-06T19:20:48.072Z,89.76
2023-01-06T19:23:20.311Z,90.00
2023-01-06T19:25:51.581Z,89.68
2023-01-06T19:28:23.128Z,90.06
2023-01-06T19:30:54.940Z,90.12
2023-01-06T19:33:38.008Z,90.46
2023-01-06T19:36:35.892Z,90.68
2023-01-06T19:39:09.390Z,90.25
2023-01-06T19:41:36.704Z,90.82
2023-01-06T19:44:13.875Z,90.66
2023-01-06T19:46:43.134Z,90.99
2023-01-06T19:49:17.004Z,91.05
2023-01-06T19:51:44.000Z,91.42
2023-01-06T19:54:24.234Z,91.57
2023-01-06T19:56:51.992Z,91.61
2023-01-06T19:59:25.378Z,91.60
2023-01-06T20:02:03.557Z,91.57
2023-01-06T20:04:31.000Z,91.55
2023-01-06T20:06:57.987Z,91.55
2023-01-06T20:09:25.020Z,91.52
2023-01-06T20:11:52.788Z,91.43
2023-01-06T20:14:20.148Z,91.32
2023-01-06T20:16:56.018Z,91.42
2023-01-06T20:19:23.217Z,91.42
2023-01-06T20:21:50.222Z,91.31
2023-01-06T20:24:17.602Z,91.52
2023-01-06T20:26:44.837Z,91.63
2023-01-06T20:29:12.799Z,91.92
2023-01-06T20:31:40.412Z,92.02
2023-01-06T20:34:07.486Z,92.08
2023-01-06T20:37:01.265Z,92.38
2023-01-06T20:39:29.847Z,92.52
2023-01-06T20:41:57.621Z,92.37
2023-01-06T20:44:24.709Z,92.93
2023-01-06T20:46:51.824Z,92.80
2023-01-06T20:49:20.602Z,92.79
2023-01-06T20:51:47.765Z,93.63
2023-01-06T20:54:14.778Z,93.51
2023-01-06T20:56:42.023Z,93.31
2023-01-06T20:59:09.106Z,93.17
2023-01-06T21:01:36.180Z,93.16
2023-01-06T21:04:03.531Z,93.52
2023-01-06T21:06:30.797Z,93.54
2023-01-06T21:08:57.774Z,93.31
2023-01-06T21:11:25.047Z,93.10
2023-01-06T21:13:52.257Z,93.38
2023-01-06T21:16:19.347Z,93.24
2023-01-06T21:18:46.509Z,93.77
2023-01-06T21:21:13.488Z,93.92
2023-01-06T21:23:40.833Z,93.92
2023-01-06T21:26:08.469Z,94.32
2023-01-06T21:28:35.582Z,94.24
2023-01-06T21:31:02.624Z,94.08
2023-01-06T21:33:29.759Z,93.95
2023-01-06T21:35:56.710Z,93.84
2023-01-06T21:38:24.025Z,94.29
2023-01-06T21:40:51.337Z,93.87
2023-01-06T21:43:19.442Z,93.68
2023-01-06T21:45:48.096Z,93.66
2023-01-06T21:48:15.729Z,93.57
2023-01-06T21:50:45.125Z,93.63
2023-01-06T21:53:14.027Z,93.67
2023-01-06T21:55:41.744Z,93.47
2023-01-06T21:58:09.120Z,93.67
2023-01-06T22:00:36.124Z,93.82
2023-01-06T22:03:03.389Z,93.51
2023-01-06T22:05:31.507Z,93.51
2023-01-06T22:07:58.774Z,93.61
2023-01-06T22:10:27.864Z,94.04
2023-01-06T22:12:59.782Z,93.96
2023-01-06T22:15:27.805Z,94.08
2023-01-06T22:17:58.049Z,93.85
2023-01-06T22:20:25.630Z,93.69
2023-01-06T22:22:53.074Z,93.80
2023-01-06T22:25:20.145Z,93.95
2023-01-06T22:27:47.344Z,93.82
2023-01-06T22:30:15.403Z,93.67
2023-01-06T22:32:50.077Z,93.68
2023-01-06T22:35:18.694Z,93.75
2023-01-06T22:37:46.479Z,93.59
2023-01-06T22:40:15.821Z,93.45
2023-01-06T22:42:43.323Z,93.12
2023-01-06T22:45:12.794Z,93.09
2023-01-06T22:47:40.107Z,93.03
2023-01-06T22:50:09.303Z,92.95
2023-01-06T22:52:36.352Z,92.97
2023-01-06T22:55:03.806Z,92.91
2023-01-06T22:57:31.058Z,92.84
2023-01-06T23:00:00.297Z,92.82
2023-01-06T23:02:27.855Z,92.80
2023-01-06T23:04:55.624Z,92.69
2023-01-06T23:07:22.626Z,92.69
2023-01-06T23:09:49.765Z,92.82
2023-01-06T23:12:16.990Z,92.79
2023-01-06T23:14:44.033Z,92.91
2023-01-06T23:17:11.815Z,92.90
2023-01-06T23:19:38.906Z,92.84
2023-01-06T23:22:05.887Z,92.88
2023-01-06T23:24:33.693Z,92.92
2023-01-06T23:27:00.941Z,92.94
2023-01-06T23:29:28.077Z,92.93
2023-01-06T23:31:55.452Z,92.94
2023-01-06T23:34:22.722Z,93.03
2023-01-06T23:36:50.793Z,92.99
2023-01-06T23:39:18.875Z,93.14
2023-01-06T23:41:46.015Z,93.26
2023-01-06T23:44:17.209Z,93.25
2023-01-06T23:46:45.143Z,93.19
2023-01-06T23:49:13.792Z,93.19
2023-01-06T23:51:41.364Z,93.31
2023-01-06T23:54:09.552Z,93.13
2023-01-06T23:56:38.348Z,93.42
2023-01-06T23:59:08.035Z,93.59
